Time;durP1;ratioP1;P1;durP2;ratioP2;P2;SDS_P1;SDS_P2;PMS_P1;PMS_P2;Temp;Humidity;BMP_temperature;BMP_pressure;BME280_temperature;BME280_humidity;BME280_pressure;Samples;Min_cycle;Max_cycle;Signal;HPM_P1;HPM_P2
2023/08/11 00:02:05;;;;;;;4.40;3.25;;;17.90;99.90;;;;;;5039244;28;20526;-58
2023/08/11 00:04:31;;;;;;;6.35;3.03;;;17.80;99.90;;;;;;5061068;28;20059;-58
2023/08/11 00:06:57;;;;;;;3.00;2.67;;;17.80;99.90;;;;;;5051154;28;20053;-58
2023/08/11 00:09:23;;;;;;;4.47;2.67;;;17.80;99.90;;;;;;5031337;28;20831;-56
2023/08/11 00:11:50;;;;;;;5.38;2.67;;;17.80;99.90;;;;;;5040465;28;20178;-56
2023/08/11 00:14:16;;;;;;;5.13;3.35;;;17.80;99.90;;;;;;5038821;28;20056;-56
2023/08/11 00:16:41;;;;;;;2.42;2.22;;;17.80;99.90;;;;;;5057165;28;20558;-57
2023/08/11 00:19:07;;;;;;;3.53;2.70;;;17.80;99.90;;;;;;5039631;28;20063;-56
2023/08/11 00:21:33;;;;;;;4.55;3.10;;;17.70;99.90;;;;;;5044179;28;20135;-57
2023/08/11 00:23:58;;;;;;;5.30;2.80;;;17.70;99.90;;;;;;5056690;28;20507;-57
2023/08/11 00:26:24;;;;;;;6.18;2.83;;;17.70;99.90;;;;;;5037916;28;20163;-56
2023/08/11 00:28:50;;;;;;;3.55;2.90;;;17.70;99.90;;;;;;5055470;28;20060;-56
2023/08/11 00:31:16;;;;;;;3.25;2.92;;;17.60;99.90;;;;;;5040420;28;20052;-56
2023/08/11 00:33:46;;;;;;;3.83;3.22;;;17.60;99.90;;;;;;5057867;28;20143;-57
2023/08/11 00:36:15;;;;;;;3.85;2.72;;;17.50;99.90;;;;;;5015289;28;1202396;-56
2023/08/11 00:38:41;;;;;;;4.22;3.33;;;17.00;99.90;;;;;;5044130;28;20056;-56
2023/08/11 00:41:07;;;;;;;4.78;3.45;;;17.30;99.90;;;;;;5055709;28;20517;-57
2023/08/11 00:43:33;;;;;;;5.95;3.53;;;17.30;99.90;;;;;;5035221;28;20068;-55
2023/08/11 00:46:07;;;;;;;7.13;3.78;;;17.30;99.90;;;;;;5043691;28;20060;-55
2023/08/11 00:48:33;;;;;;;3.90;3.50;;;17.10;99.90;;;;;;5045744;28;20052;-56
2023/08/11 00:50:59;;;;;;;6.43;3.67;;;17.00;99.90;;;;;;5036063;28;20064;-56
2023/08/11 00:53:25;;;;;;;5.10;3.60;;;16.90;99.90;;;;;;5044841;28;20075;-56
2023/08/11 00:55:51;;;;;;;5.38;3.75;;;16.90;99.90;;;;;;5063063;28;20056;-55
2023/08/11 00:58:17;;;;;;;4.68;3.53;;;16.80;99.90;;;;;;5047302;28;20083;-56
2023/08/11 01:00:45;;;;;;;4.45;4.05;;;16.80;99.90;;;;;;5062635;28;20061;-57
2023/08/11 01:03:11;;;;;;;7.18;3.75;;;16.70;99.90;;;;;;5061584;28;20147;-57
2023/08/11 01:08:29;;;;;;;3.75;3.20;;;16.60;99.90;;;;;;5057458;28;20062;-56
2023/08/11 01:11:17;;;;;;;3.88;3.58;;;16.50;99.90;;;;;;5058632;28;20048;-55
2023/08/11 01:13:50;;;;;;;5.32;3.90;;;16.40;99.90;;;;;;5060348;28;20474;-56
2023/08/11 01:16:16;;;;;;;4.63;3.73;;;16.40;99.90;;;;;;5051654;28;20067;-56
2023/08/11 01:18:42;;;;;;;6.38;3.95;;;16.30;99.90;;;;;;5063824;28;20049;-56
2023/08/11 01:21:12;;;;;;;5.07;3.78;;;16.30;99.90;;;;;;5058889;28;20056;-56
2023/08/11 01:23:40;;;;;;;4.25;3.33;;;16.20;99.90;;;;;;5068382;28;20102;-56
2023/08/11 01:26:06;;;;;;;5.78;4.30;;;16.10;99.90;;;;;;5057413;28;20067;-56
2023/08/11 01:28:34;;;;;;;4.80;4.22;;;16.10;99.90;;;;;;5047017;28;20056;-56
2023/08/11 01:31:00;;;;;;;6.45;3.85;;;16.00;99.90;;;;;;5060502;28;20064;-55
2023/08/11 01:33:26;;;;;;;4.88;3.53;;;16.00;99.90;;;;;;5060908;28;20053;-56
2023/08/11 01:35:51;;;;;;;4.05;3.65;;;15.90;99.90;;;;;;5060225;28;20053;-55
2023/08/11 01:38:17;;;;;;;3.38;3.05;;;15.90;99.90;;;;;;5058138;28;21203;-55
2023/08/11 01:40:43;;;;;;;4.28;3.88;;;15.80;99.90;;;;;;5058594;28;20064;-55
2023/08/11 01:43:11;;;;;;;4.32;3.92;;;15.80;99.90;;;;;;5056300;28;20073;-55
2023/08/11 01:45:37;;;;;;;6.65;4.30;;;15.70;99.90;;;;;;5061531;28;20584;-56
2023/08/11 01:48:04;;;;;;;5.10;4.60;;;15.70;99.90;;;;;;5060613;28;20057;-55
2023/08/11 01:50:31;;;;;;;5.20;4.38;;;15.60;99.90;;;;;;5042672;28;20549;-55
2023/08/11 01:52:58;;;;;;;5.88;4.10;;;15.60;99.90;;;;;;5056750;28;20141;-55
2023/08/11 01:55:25;;;;;;;6.88;4.40;;;15.60;99.90;;;;;;5059053;28;20052;-56
2023/08/11 01:57:51;;;;;;;7.68;4.47;;;15.50;99.90;;;;;;5057431;28;20099;-54
2023/08/11 02:00:17;;;;;;;6.85;4.32;;;15.50;99.90;;;;;;5031388;28;20525;-56
2023/08/11 02:02:43;;;;;;;5.72;4.38;;;15.40;99.90;;;;;;5028424;28;20095;-55
2023/08/11 02:05:15;;;;;;;3.90;3.33;;;15.40;99.90;;;;;;5039849;28;20064;-56
2023/08/11 02:07:41;;;;;;;5.40;4.32;;;15.30;99.90;;;;;;5059887;28;20067;-56
2023/08/11 02:10:08;;;;;;;6.10;4.47;;;15.30;99.90;;;;;;5039717;28;20487;-56
2023/08/11 02:12:38;;;;;;;5.20;4.35;;;15.30;99.90;;;;;;5060661;28;20603;-57
2023/08/11 02:15:07;;;;;;;5.43;4.65;;;15.20;99.90;;;;;;5036871;28;20060;-57
2023/08/11 02:17:34;;;;;;;5.15;3.72;;;15.20;99.90;;;;;;5053102;28;20096;-57
2023/08/11 02:20:03;;;;;;;6.45;5.25;;;15.20;99.90;;;;;;5055012;28;20743;-59
2023/08/11 02:22:29;;;;;;;7.18;4.15;;;15.20;99.90;;;;;;5050638;28;20126;-60
2023/08/11 02:24:55;;;;;;;6.13;5.25;;;15.20;99.90;;;;;;5057697;28;20052;-63
2023/08/11 02:27:21;;;;;;;5.53;5.03;;;15.10;99.90;;;;;;5056988;28;20048;-57
2023/08/11 02:29:51;;;;;;;5.72;4.70;;;15.10;99.90;;;;;;5068145;28;20075;-56
2023/08/11 02:32:19;;;;;;;5.72;4.72;;;15.10;99.90;;;;;;5055978;28;20061;-56
2023/08/11 02:34:45;;;;;;;6.00;4.65;;;15.00;99.90;;;;;;5058148;28;20469;-58
2023/08/11 02:37:10;;;;;;;5.38;4.65;;;15.00;99.90;;;;;;5060690;28;20144;-61
2023/08/11 02:39:36;;;;;;;6.45;4.65;;;14.90;99.90;;;;;;5044474;28;20056;-57
2023/08/11 02:42:03;;;;;;;8.65;5.15;;;14.90;99.90;;;;;;5038696;28;20083;-57
2023/08/11 02:44:28;;;;;;;6.22;4.63;;;14.80;99.90;;;;;;5059452;28;20052;-59
2023/08/11 02:46:54;;;;;;;6.07;5.18;;;14.80;99.90;;;;;;5058551;28;20060;-57
2023/08/11 02:49:20;;;;;;;5.70;5.20;;;14.80;99.90;;;;;;5042904;28;20045;-56
2023/08/11 02:51:45;;;;;;;10.52;7.93;;;14.80;99.90;;;;;;5050997;28;20532;-56
2023/08/11 02:54:11;;;;;;;13.18;8.88;;;14.70;99.90;;;;;;5055268;28;20072;-60
2023/08/11 02:56:44;;;;;;;7.03;6.22;;;14.80;99.90;;;;;;5059458;28;20067;-58
2023/08/11 02:59:10;;;;;;;9.25;6.80;;;14.70;99.90;;;;;;5058787;28;20512;-57
2023/08/11 03:01:35;;;;;;;8.77;6.32;;;14.70;99.90;;;;;;5051510;28;20375;-56
2023/08/11 03:04:01;;;;;;;9.57;6.65;;;14.70;99.90;;;;;;5058315;28;20075;-56
2023/08/11 03:06:27;;;;;;;9.70;7.15;;;14.70;99.90;;;;;;5053248;28;20491;-57
2023/08/11 03:08:53;;;;;;;11.38;8.70;;;14.60;99.90;;;;;;5018874;28;20056;-56
2023/08/11 03:11:19;;;;;;;8.38;7.47;;;14.60;99.90;;;;;;5058976;28;20063;-56
2023/08/11 03:13:45;;;;;;;8.30;7.13;;;14.60;99.90;;;;;;5062960;28;20052;-56
2023/08/11 03:16:10;;;;;;;9.85;7.97;;;14.60;99.90;;;;;;5059044;28;20172;-56
2023/08/11 03:18:36;;;;;;;10.20;7.93;;;14.60;99.90;;;;;;5054711;28;20525;-56
2023/08/11 03:21:02;;;;;;;8.48;7.55;;;14.50;99.90;;;;;;5037774;28;20051;-57
2023/08/11 03:23:28;;;;;;;8.55;7.38;;;14.50;99.90;;;;;;5034851;28;20087;-57
2023/08/11 03:25:54;;;;;;;10.27;9.27;;;14.50;99.90;;;;;;5059972;28;20565;-56
2023/08/11 03:28:20;;;;;;;13.45;8.45;;;14.50;99.90;;;;;;5044417;28;20056;-56
2023/08/11 03:30:50;;;;;;;10.45;8.82;;;14.50;99.90;;;;;;5047362;28;20060;-56
2023/08/11 03:33:16;;;;;;;12.88;8.80;;;14.40;99.90;;;;;;5059903;28;20056;-56
2023/08/11 03:35:42;;;;;;;15.48;11.15;;;14.50;99.90;;;;;;5060693;28;20063;-57
2023/08/11 03:38:07;;;;;;;15.90;10.90;;;14.50;99.90;;;;;;5059163;28;20052;-60
2023/08/11 03:40:33;;;;;;;12.15;10.73;;;14.60;99.90;;;;;;5062203;28;20052;-62
2023/08/11 03:42:58;;;;;;;12.52;10.65;;;14.60;99.90;;;;;;5048765;28;20522;-61
2023/08/11 03:45:24;;;;;;;10.95;9.45;;;14.50;99.90;;;;;;5031752;28;20082;-60
2023/08/11 03:47:50;;;;;;;11.20;8.90;;;14.50;99.90;;;;;;5060943;28;20094;-60
2023/08/11 03:50:16;;;;;;;11.80;10.00;;;14.40;99.90;;;;;;5031330;28;20060;-56
2023/08/11 03:52:42;;;;;;;11.43;10.18;;;14.50;99.90;;;;;;5067998;28;20143;-59
2023/08/11 03:55:09;;;;;;;12.57;9.95;;;14.50;99.90;;;;;;5057263;28;20513;-56
2023/08/11 03:57:36;;;;;;;13.07;9.88;;;14.50;99.90;;;;;;5042301;28;20125;-57
2023/08/11 04:00:05;;;;;;;12.15;10.00;;;14.50;99.90;;;;;;5040244;28;20093;-57
2023/08/11 04:02:31;;;;;;;12.95;10.00;;;14.50;99.90;;;;;;5063804;28;20068;-57
2023/08/11 04:04:57;;;;;;;12.43;9.63;;;14.50;99.90;;;;;;5050134;28;20057;-57
2023/08/11 04:07:23;;;;;;;12.38;9.43;;;14.50;99.90;;;;;;5057483;28;20057;-56
2023/08/11 04:09:52;;;;;;;10.65;9.45;;;14.50;99.90;;;;;;5023397;28;20056;-56
2023/08/11 04:12:17;;;;;;;11.77;9.85;;;14.50;99.90;;;;;;5057624;28;20040;-56
2023/08/11 04:14:43;;;;;;;14.52;10.13;;;14.40;99.90;;;;;;5060609;28;20087;-56
2023/08/11 04:17:12;;;;;;;11.00;9.52;;;14.50;99.90;;;;;;5032027;28;20098;-56
2023/08/11 04:19:38;;;;;;;10.60;9.57;;;14.40;99.90;;;;;;5052539;28;20098;-56
2023/08/11 04:22:05;;;;;;;11.13;9.48;;;14.40;99.90;;;;;;5040588;28;20068;-56
2023/08/11 04:24:31;;;;;;;11.85;9.05;;;14.50;99.90;;;;;;5046371;28;20143;-56
2023/08/11 04:26:56;;;;;;;10.25;8.00;;;14.40;99.90;;;;;;5059349;28;20072;-56
2023/08/11 04:29:22;;;;;;;14.30;8.95;;;14.40;99.90;;;;;;5063440;28;20449;-55
2023/08/11 04:31:51;;;;;;;10.13;8.95;;;14.50;99.90;;;;;;5064321;28;20056;-56
2023/08/11 04:34:17;;;;;;;11.65;8.55;;;14.40;99.90;;;;;;5061734;28;20052;-55
2023/08/11 04:36:42;;;;;;;12.00;9.40;;;14.50;99.90;;;;;;5064235;28;20844;-55
2023/08/11 04:39:08;;;;;;;12.43;8.50;;;14.50;99.90;;;;;;5060271;28;20065;-56
2023/08/11 04:41:35;;;;;;;11.52;9.68;;;14.50;99.90;;;;;;5064478;28;20056;-56
2023/08/11 04:44:01;;;;;;;12.75;7.53;;;14.50;99.90;;;;;;5064551;28;20052;-56
2023/08/11 04:46:27;;;;;;;10.40;7.93;;;14.50;99.90;;;;;;5063943;28;20052;-56
2023/08/11 04:48:53;;;;;;;11.40;9.05;;;14.50;99.90;;;;;;5052905;28;20056;-55
2023/08/11 04:51:18;;;;;;;10.90;8.43;;;14.60;99.90;;;;;;5044689;28;20066;-55
2023/08/11 04:53:44;;;;;;;10.20;8.55;;;14.60;99.90;;;;;;5045366;28;20139;-56
2023/08/11 04:56:10;;;;;;;10.23;8.45;;;14.60;99.90;;;;;;5016600;28;1150998;-55
2023/08/11 04:58:38;;;;;;;10.52;8.45;;;14.70;99.90;;;;;;5054631;28;20056;-58
2023/08/11 05:01:04;;;;;;;8.70;7.80;;;14.70;99.90;;;;;;5063437;28;20127;-58
2023/08/11 05:03:30;;;;;;;11.30;8.38;;;14.80;99.90;;;;;;5055142;28;20045;-60
2023/08/11 05:05:56;;;;;;;9.10;7.68;;;14.80;99.90;;;;;;5055760;28;20086;-58
2023/08/11 05:08:22;;;;;;;8.57;7.45;;;14.90;99.90;;;;;;5062847;28;20497;-63
2023/08/11 05:10:51;;;;;;;9.55;7.70;;;15.00;99.90;;;;;;5063528;28;20063;-61
2023/08/11 05:13:17;;;;;;;9.48;8.02;;;15.10;99.90;;;;;;5056974;28;20052;-56
2023/08/11 05:15:43;;;;;;;15.18;8.85;;;15.10;99.90;;;;;;5058929;28;20064;-57
2023/08/11 05:18:10;;;;;;;10.32;7.72;;;15.20;99.90;;;;;;5061070;28;20064;-59
2023/08/11 05:20:35;;;;;;;9.50;6.57;;;15.30;99.90;;;;;;5058207;28;20147;-64
2023/08/11 05:23:01;;;;;;;7.55;6.40;;;15.30;99.90;;;;;;5056817;28;20087;-60
2023/08/11 05:25:27;;;;;;;8.88;7.25;;;15.40;99.90;;;;;;5060643;28;20056;-58
2023/08/11 05:27:53;;;;;;;7.53;6.60;;;15.50;99.90;;;;;;5061212;28;20056;-61
2023/08/11 05:30:21;;;;;;;8.30;7.28;;;15.60;99.90;;;;;;5047590;28;20060;-59
2023/08/11 05:35:12;;;;;;;8.30;6.97;;;15.80;99.90;;;;;;5036445;28;21206;-58
2023/08/11 05:37:38;;;;;;;7.35;5.80;;;15.90;99.90;;;;;;5040995;28;20052;-57
2023/08/11 05:40:07;;;;;;;6.00;5.40;;;16.00;99.90;;;;;;5037764;28;20411;-57
2023/08/11 05:42:32;;;;;;;8.68;5.85;;;16.20;99.90;;;;;;5040084;28;20057;-56
2023/08/11 05:44:58;;;;;;;8.52;6.53;;;16.30;99.90;;;;;;5034235;28;20076;-58
2023/08/11 05:47:24;;;;;;;6.28;5.00;;;16.40;99.90;;;;;;5041403;28;20163;-56
2023/08/11 05:49:51;;;;;;;7.35;5.55;;;16.50;99.90;;;;;;5040942;28;20067;-56
2023/08/11 05:52:17;;;;;;;8.65;6.40;;;16.70;99.90;;;;;;5045012;28;20060;-56
2023/08/11 05:54:43;;;;;;;6.78;5.72;;;16.90;99.90;;;;;;5056994;28;20045;-56
2023/08/11 05:57:08;;;;;;;5.93;5.18;;;17.00;99.90;;;;;;5042287;28;20118;-56
2023/08/11 05:59:34;;;;;;;11.07;7.05;;;17.10;99.90;;;;;;5062305;28;20061;-56
2023/08/11 06:02:00;;;;;;;8.32;6.22;;;17.30;99.90;;;;;;5053402;28;20067;-55
2023/08/11 06:04:25;;;;;;;6.40;5.80;;;17.40;99.90;;;;;;5062758;28;20422;-56
2023/08/11 06:06:51;;;;;;;10.20;5.78;;;17.50;99.90;;;;;;5042199;28;20060;-54
2023/08/11 06:09:17;;;;;;;7.38;5.95;;;17.70;99.90;;;;;;5052540;28;20063;-56
2023/08/11 06:11:42;;;;;;;8.77;6.38;;;17.80;99.90;;;;;;5038677;28;20051;-55
2023/08/11 06:14:08;;;;;;;9.30;6.13;;;18.10;99.90;;;;;;5037933;28;20519;-56
2023/08/11 06:16:34;;;;;;;5.65;5.00;;;18.10;99.90;;;;;;5062463;28;20048;-56
2023/08/11 06:19:00;;;;;;;10.50;5.68;;;18.30;99.90;;;;;;5058378;28;20095;-56
2023/08/11 06:21:25;;;;;;;6.47;5.13;;;18.50;99.90;;;;;;5044065;28;20358;-56
2023/08/11 06:23:51;;;;;;;5.90;4.70;;;18.60;99.90;;;;;;5026558;28;20147;-56
2023/08/11 06:26:17;;;;;;;7.45;5.32;;;18.70;99.90;;;;;;5033137;28;20067;-56
2023/08/11 06:28:42;;;;;;;4.93;4.43;;;18.80;99.90;;;;;;5054854;28;20482;-56
2023/08/11 06:31:11;;;;;;;6.35;4.90;;;19.10;99.90;;;;;;5045695;28;20091;-56
2023/08/11 06:33:36;;;;;;;5.00;4.57;;;19.20;99.90;;;;;;5049782;28;20570;-56
2023/08/11 06:36:03;;;;;;;5.03;4.57;;;19.20;99.90;;;;;;5051727;28;20049;-56
2023/08/11 06:38:30;;;;;;;5.10;4.57;;;19.40;99.90;;;;;;5049625;28;20156;-55
2023/08/11 06:40:56;;;;;;;6.57;5.05;;;19.50;99.90;;;;;;5047826;28;20056;-55
2023/08/11 06:43:21;;;;;;;7.10;4.18;;;19.70;99.90;;;;;;5035372;28;20056;-56
2023/08/11 06:45:51;;;;;;;8.77;5.00;;;19.80;99.90;;;;;;5054320;28;20406;-55
2023/08/11 06:48:16;;;;;;;7.05;3.80;;;19.80;99.90;;;;;;5049834;28;20052;-56
2023/08/11 06:50:42;;;;;;;6.22;4.03;;;20.10;99.90;;;;;;5049079;28;20061;-56
2023/08/11 06:53:08;;;;;;;7.57;4.60;;;20.30;99.90;;;;;;5044520;28;20056;-57
2023/08/11 06:55:34;;;;;;;6.90;3.67;;;20.50;99.90;;;;;;5044983;28;20071;-57
2023/08/11 06:58:00;;;;;;;5.85;4.22;;;20.60;99.90;;;;;;5042584;28;20057;-56
2023/08/11 07:00:26;;;;;;;7.13;4.15;;;20.80;99.90;;;;;;5042186;28;20057;-56
2023/08/11 07:02:51;;;;;;;8.63;4.90;;;20.90;99.90;;;;;;5033752;28;20516;-54
2023/08/11 07:05:17;;;;;;;5.70;3.85;;;21.00;99.90;;;;;;5031488;28;20064;-56
2023/08/11 07:07:43;;;;;;;4.95;4.25;;;21.10;99.90;;;;;;5040859;28;20053;-56
2023/08/11 07:10:09;;;;;;;7.18;3.40;;;21.30;99.90;;;;;;5028591;28;20064;-56
2023/08/11 07:12:35;;;;;;;4.43;3.70;;;21.50;99.90;;;;;;5029658;28;20114;-56
2023/08/11 07:15:01;;;;;;;5.93;4.38;;;21.60;99.90;;;;;;5048322;28;20065;-56
2023/08/11 07:17:26;;;;;;;4.82;4.22;;;21.60;99.90;;;;;;5051067;28;20066;-57
2023/08/11 07:19:52;;;;;;;6.35;3.70;;;21.80;99.90;;;;;;5047691;28;20195;-55
2023/08/11 07:22:18;;;;;;;5.78;3.92;;;21.80;99.90;;;;;;5050468;28;20079;-56
2023/08/11 07:24:43;;;;;;;5.00;3.30;;;22.00;99.90;;;;;;5030141;28;20793;-56
2023/08/11 07:27:09;;;;;;;4.35;3.00;;;22.30;99.90;;;;;;5044905;28;21056;-56
2023/08/11 07:29:35;;;;;;;4.43;4.00;;;22.60;99.90;;;;;;5044120;28;20475;-62
2023/08/11 07:32:03;;;;;;;7.78;4.50;;;22.40;99.90;;;;;;5051414;28;20084;-57
2023/08/11 07:34:28;;;;;;;4.68;3.45;;;22.40;99.90;;;;;;5050216;28;20111;-63
2023/08/11 07:36:54;;;;;;;3.80;3.42;;;22.60;99.90;;;;;;5050558;28;20048;-62
2023/08/11 07:39:20;;;;;;;3.95;3.33;;;22.90;99.90;;;;;;5043875;28;20056;-58
2023/08/11 07:41:46;;;;;;;5.78;3.58;;;23.00;99.90;;;;;;5053583;28;20139;-65
2023/08/11 07:44:11;;;;;;;5.57;3.50;;;23.20;99.90;;;;;;5044462;28;20562;-57
2023/08/11 07:46:37;;;;;;;4.43;3.50;;;23.30;99.90;;;;;;5057133;28;20049;-57
2023/08/11 07:49:03;;;;;;;5.53;2.97;;;23.60;99.90;;;;;;5046607;28;20053;-56
2023/08/11 07:51:28;;;;;;;6.80;4.18;;;24.00;99.90;;;;;;5050108;28;20060;-56
2023/08/11 07:53:54;;;;;;;4.55;3.60;;;24.30;99.90;;;;;;5055662;28;20491;-57
2023/08/11 07:56:20;;;;;;;5.07;3.17;;;24.40;99.90;;;;;;5024958;28;20434;-56
2023/08/11 07:58:47;;;;;;;3.83;2.78;;;25.00;99.90;;;;;;5050087;28;20095;-56
2023/08/11 08:01:16;;;;;;;4.80;3.05;;;25.10;99.90;;;;;;5047309;28;20552;-56
2023/08/11 08:03:41;;;;;;;4.00;3.42;;;25.40;99.90;;;;;;5051475;28;20057;-57
2023/08/11 08:06:07;;;;;;;4.38;2.83;;;25.10;99.90;;;;;;5027173;28;20078;-57
2023/08/11 08:08:35;;;;;;;5.05;2.83;;;25.40;99.90;;;;;;5035652;28;20087;-57
2023/08/11 08:11:02;;;;;;;4.10;2.85;;;25.80;99.90;;;;;;5048972;28;20060;-58
2023/08/11 08:13:31;;;;;;;3.60;2.72;;;25.90;99.90;;;;;;5054530;28;20064;-57
2023/08/11 08:15:57;;;;;;;3.67;2.72;;;26.60;99.90;;;;;;5033170;28;20057;-56
2023/08/11 08:18:23;;;;;;;4.78;2.65;;;26.90;99.90;;;;;;5036851;28;20556;-57
2023/08/11 08:20:52;;;;;;;3.53;2.65;;;26.70;99.90;;;;;;5054741;28;20052;-59
2023/08/11 08:23:17;;;;;;;3.97;2.88;;;27.20;99.90;;;;;;5052231;28;20139;-57
2023/08/11 08:25:43;;;;;;;3.00;2.70;;;27.20;99.90;;;;;;5053568;28;20410;-57
2023/08/11 08:28:13;;;;;;;3.08;2.58;;;27.40;99.90;;;;;;5034437;28;20637;-56
2023/08/11 08:30:39;;;;;;;3.55;2.20;;;27.80;99.90;;;;;;5055780;28;20072;-58
2023/08/11 08:33:06;;;;;;;3.30;2.13;;;28.10;99.90;;;;;;5047409;28;20049;-57
2023/08/11 08:35:31;;;;;;;8.38;3.30;;;28.40;99.90;;;;;;5042089;28;20398;-59
2023/08/11 08:37:57;;;;;;;3.00;2.60;;;28.30;99.90;;;;;;5048647;28;20526;-57
2023/08/11 08:40:23;;;;;;;4.22;2.30;;;28.20;99.90;;;;;;5056887;28;20083;-56
2023/08/11 08:42:51;;;;;;;3.45;2.28;;;28.20;99.90;;;;;;5054806;28;20071;-56
2023/08/11 08:45:18;;;;;;;3.25;2.40;;;28.40;99.90;;;;;;5045647;28;21217;-57
2023/08/11 08:47:45;;;;;;;4.40;2.42;;;29.60;99.90;;;;;;5039552;28;20064;-58
2023/08/11 08:50:11;;;;;;;3.60;2.10;;;29.00;99.90;;;;;;5051737;28;20061;-57
2023/08/11 08:52:38;;;;;;;3.67;2.58;;;29.10;99.90;;;;;;5050642;28;20152;-60
2023/08/11 08:55:05;;;;;;;4.55;2.75;;;29.30;99.90;;;;;;5033042;28;20122;-62
2023/08/11 08:57:31;;;;;;;4.28;2.40;;;29.00;99.90;;;;;;5051714;28;20502;-57
2023/08/11 08:59:57;;;;;;;2.47;2.13;;;29.00;99.90;;;;;;5043495;28;20092;-56
2023/08/11 09:02:30;;;;;;;5.15;2.88;;;29.30;99.90;;;;;;5052485;28;20056;-57
2023/08/11 09:04:56;;;;;;;;;;;29.00;99.90;;;;;;5055880;28;20056;-57
2023/08/11 09:07:22;;;;;;;5.57;2.83;;;29.10;99.90;;;;;;5061984;28;19968;-57
2023/08/11 09:09:51;;;;;;;3.58;2.40;;;29.00;99.90;;;;;;5059589;28;20052;-57
2023/08/11 09:12:17;;;;;;;6.97;3.03;;;29.20;99.90;;;;;;5040761;28;21315;-60
2023/08/11 09:14:45;;;;;;;4.03;2.85;;;29.30;99.90;;;;;;5010404;28;1159627;-57
2023/08/11 09:17:12;;;;;;;4.18;2.63;;;29.30;99.90;;;;;;5052146;28;20048;-57
2023/08/11 09:19:41;;;;;;;2.60;2.40;;;29.20;99.90;;;;;;5052336;28;20059;-56
2023/08/11 09:22:10;;;;;;;4.28;2.63;;;29.10;99.90;;;;;;5052188;28;20048;-56
2023/08/11 09:24:37;;;;;;;2.65;1.98;;;29.60;99.90;;;;;;5055455;28;20422;-57
2023/08/11 09:27:03;;;;;;;7.70;3.03;;;29.50;99.90;;;;;;5055563;28;20720;-57
2023/08/11 09:29:29;;;;;;;4.57;2.30;;;29.50;99.90;;;;;;5056515;28;20088;-57
2023/08/11 09:31:55;;;;;;;2.88;2.13;;;29.70;99.90;;;;;;5028678;28;20569;-58
2023/08/11 09:34:21;;;;;;;3.78;2.40;;;29.60;99.90;;;;;;5047420;28;20063;-57
2023/08/11 09:39:16;;;;;;;2.75;2.45;;;30.60;99.90;;;;;;5040552;28;20053;-58
2023/08/11 09:41:44;;;;;;;5.80;2.97;;;30.90;99.90;;;;;;5051855;28;20736;-57
2023/08/11 09:44:14;;;;;;;2.72;2.35;;;30.20;99.90;;;;;;5050993;28;20103;-57
2023/08/11 09:46:40;;;;;;;3.33;2.10;;;30.00;99.90;;;;;;5059034;28;20061;-63
2023/08/11 09:49:07;;;;;;;5.05;2.92;;;30.70;99.90;;;;;;5055431;28;20063;-60
2023/08/11 09:51:35;;;;;;;3.85;2.20;;;30.10;99.90;;;;;;5059333;28;20065;-57
2023/08/11 09:54:07;;;;;;;3.17;2.13;;;30.70;99.90;;;;;;5055067;28;20053;-64
2023/08/11 09:56:38;;;;;;;2.47;1.92;;;30.60;99.90;;;;;;5062299;28;20056;-57
2023/08/11 09:59:09;;;;;;;3.63;2.45;;;30.50;99.90;;;;;;5055782;28;20048;-57
2023/08/11 10:01:36;;;;;;;5.43;2.30;;;29.70;99.90;;;;;;5058749;28;20514;-57
2023/08/11 10:04:07;;;;;;;4.18;2.40;;;30.00;99.90;;;;;;5053511;28;20147;-57
2023/08/11 10:06:36;;;;;;;2.95;1.80;;;30.20;99.90;;;;;;5054361;28;20053;-57
2023/08/11 10:09:03;;;;;;;3.58;2.30;;;30.60;99.90;;;;;;5050234;28;20056;-57
2023/08/11 10:11:33;;;;;;;5.25;2.30;;;31.30;99.90;;;;;;5054500;28;20088;-57
2023/08/11 10:14:02;;;;;;;3.38;2.22;;;30.70;99.90;;;;;;5049280;28;20056;-57
2023/08/11 10:16:28;;;;;;;4.28;2.47;;;30.60;99.90;;;;;;5060457;28;20177;-57
2023/08/11 10:18:58;;;;;;;4.15;2.10;;;30.80;99.90;;;;;;5050638;28;21039;-56
2023/08/11 10:21:25;;;;;;;2.92;1.85;;;30.80;99.90;;;;;;5049932;28;20052;-57
2023/08/11 10:23:53;;;;;;;3.75;2.00;;;30.40;99.90;;;;;;5063647;28;20059;-55
2023/08/11 10:26:20;;;;;;;4.47;2.03;;;30.70;99.90;;;;;;5042222;28;20071;-58
2023/08/11 10:31:16;;;;;;;2.85;2.10;;;31.30;99.90;;;;;;5054938;28;20040;-56
2023/08/11 10:36:25;;;;;;;2.50;2.08;;;31.20;99.90;;;;;;5048406;28;21545;-57
2023/08/11 10:39:20;;;;;;;3.03;1.75;;;31.10;99.90;;;;;;5040918;28;20547;-56
2023/08/11 10:41:46;;;;;;;2.28;2.00;;;31.50;99.90;;;;;;5018640;28;20063;-58
2023/08/11 10:44:16;;;;;;;4.78;2.03;;;31.30;99.90;;;;;;5039580;28;20071;-56
2023/08/11 10:46:42;;;;;;;4.22;2.00;;;31.40;99.90;;;;;;5028666;28;20130;-58
2023/08/11 10:49:07;;;;;;;11.35;2.20;;;31.80;99.90;;;;;;5043893;28;20060;-57
2023/08/11 10:51:35;;;;;;;3.33;1.77;;;31.50;99.90;;;;;;5045473;28;20801;-57
2023/08/11 10:54:12;;;;;;;2.75;2.03;;;31.20;99.90;;;;;;5055769;28;20048;-57
2023/08/11 10:56:42;;;;;;;2.05;1.83;;;31.60;99.90;;;;;;5056264;28;20468;-57
2023/08/11 10:59:17;;;;;;;2.75;1.90;;;31.40;99.90;;;;;;5050282;28;20079;-57
2023/08/11 11:01:45;;;;;;;2.92;1.70;;;31.70;99.90;;;;;;5055055;28;20135;-57
2023/08/11 11:04:12;;;;;;;3.70;2.22;;;32.00;99.90;;;;;;5029497;28;20452;-56
2023/08/11 11:06:39;;;;;;;2.20;1.73;;;31.80;99.90;;;;;;5013061;28;20067;-57
2023/08/11 11:09:06;;;;;;;2.58;1.67;;;31.80;99.90;;;;;;5031836;28;20079;-57
2023/08/11 11:11:33;;;;;;;1.98;1.70;;;32.10;99.90;;;;;;5047583;28;20304;-56
2023/08/11 11:13:59;;;;;;;2.42;2.13;;;32.70;99.90;;;;;;5046716;28;20068;-59
2023/08/11 11:16:27;;;;;;;3.28;1.70;;;32.20;99.90;;;;;;5052408;28;20095;-60
2023/08/11 11:18:52;;;;;;;4.95;2.17;;;32.20;99.90;;;;;;5040319;28;20056;-58
2023/08/11 11:21:19;;;;;;;3.20;1.58;;;32.50;99.90;;;;;;5028825;28;20663;-57
2023/08/11 11:23:50;;;;;;;2.88;2.00;;;32.10;99.90;;;;;;5048961;28;20129;-57
2023/08/11 11:26:31;;;;;;;4.45;1.92;;;32.40;99.90;;;;;;5048875;28;20056;-57
2023/08/11 11:28:58;;;;;;;3.35;1.70;;;32.60;99.90;;;;;;5047882;28;20565;-57
2023/08/11 11:31:27;;;;;;;2.60;1.63;;;34.40;99.90;;;;;;5049148;28;20147;-60
2023/08/11 11:33:52;;;;;;;4.20;1.83;;;35.90;99.90;;;;;;5041421;28;20498;-56
2023/08/11 11:36:19;;;;;;;3.13;1.60;;;37.50;99.10;;;;;;5012722;28;20048;-57
2023/08/11 11:38:46;;;;;;;1.90;1.30;;;38.50;97.80;;;;;;5046787;28;20095;-57
2023/08/11 11:41:13;;;;;;;2.65;2.00;;;39.20;97.20;;;;;;5046491;28;20183;-57
2023/08/11 11:43:39;;;;;;;3.03;1.88;;;39.40;96.20;;;;;;5047980;28;20640;-57
2023/08/11 11:46:16;;;;;;;2.45;2.05;;;39.90;95.70;;;;;;5048202;28;20060;-57
2023/08/11 11:48:50;;;;;;;2.08;1.60;;;40.40;94.20;;;;;;5052035;28;20053;-58
2023/08/11 11:51:18;;;;;;;1.63;1.50;;;39.50;94.20;;;;;;5028759;28;20053;-57
2023/08/11 11:53:44;;;;;;;3.47;1.83;;;39.30;93.90;;;;;;5044466;28;20056;-57
2023/08/11 11:56:15;;;;;;;3.60;1.60;;;38.40;94.30;;;;;;5049145;28;20593;-57
2023/08/11 11:58:43;;;;;;;1.65;1.33;;;38.70;94.20;;;;;;5032809;28;20370;-57
2023/08/11 12:01:13;;;;;;;1.70;1.60;;;38.80;94.90;;;;;;5039999;28;20068;-57
2023/08/11 12:03:39;;;;;;;1.80;1.70;;;41.50;94.10;;;;;;5030499;28;20817;-57
2023/08/11 12:06:07;;;;;;;2.40;1.67;;;41.10;93.00;;;;;;5049977;28;20071;-57
2023/08/11 12:08:35;;;;;;;2.35;1.65;;;39.90;92.50;;;;;;5029662;28;20150;-57
2023/08/11 12:11:02;;;;;;;2.25;1.52;;;41.60;92.50;;;;;;5039925;28;20071;-58
2023/08/11 12:13:32;;;;;;;6.30;2.38;;;41.90;92.10;;;;;;5049049;28;20169;-60
2023/08/11 12:15:59;;;;;;;3.10;1.42;;;42.10;91.50;;;;;;5047031;28;20056;-57
2023/08/11 12:18:28;;;;;;;4.13;1.73;;;41.30;91.40;;;;;;5049776;28;20445;-59
2023/08/11 12:20:58;;;;;;;12.82;2.25;;;41.20;90.90;;;;;;5047841;28;20072;-58
2023/08/11 12:23:25;;;;;;;2.35;1.77;;;40.20;91.90;;;;;;5033252;28;20609;-61
2023/08/11 12:25:52;;;;;;;3.53;1.60;;;41.10;91.50;;;;;;5036043;28;20140;-57
2023/08/11 12:28:18;;;;;;;3.00;1.45;;;41.00;90.80;;;;;;5044590;28;20202;-57
2023/08/11 12:30:44;;;;;;;2.63;1.45;;;41.10;90.60;;;;;;5041181;28;20163;-59
2023/08/11 12:33:10;;;;;;;1.60;1.50;;;40.50;90.50;;;;;;5041343;28;20053;-57
2023/08/11 12:35:36;;;;;;;3.42;2.00;;;41.10;90.60;;;;;;5043864;28;20056;-59
2023/08/11 12:38:04;;;;;;;6.25;1.83;;;41.20;90.80;;;;;;5028717;28;20049;-56
2023/08/11 12:40:30;;;;;;;1.90;1.48;;;41.50;90.70;;;;;;5047355;28;20102;-59
2023/08/11 12:42:56;;;;;;;3.65;1.77;;;41.40;90.40;;;;;;5038984;28;20048;-56
2023/08/11 12:45:22;;;;;;;5.65;2.33;;;41.90;89.60;;;;;;5051684;28;20056;-57
2023/08/11 12:47:51;;;;;;;1.58;1.42;;;41.10;90.00;;;;;;5041920;28;20076;-58
2023/08/11 12:50:17;;;;;;;3.88;1.60;;;42.20;88.80;;;;;;5055325;28;20067;-57
2023/08/11 12:52:43;;;;;;;2.30;1.55;;;42.70;89.10;;;;;;5041825;28;20095;-57
2023/08/11 12:55:09;;;;;;;3.30;1.75;;;41.60;87.80;;;;;;5041298;28;20084;-57
2023/08/11 12:57:36;;;;;;;5.50;2.13;;;41.90;88.40;;;;;;5053238;28;20057;-60